Time;durP1;ratioP1;P1;durP2;ratioP2;P2;SDS_P1;SDS_P2;PMS_P1;PMS_P2;Temp;Humidity;BMP_temperature;BMP_pressure;BME280_temperature;BME280_humidity;BME280_pressure;Samples;Min_cycle;Max_cycle;Signal;HPM_P1;HPM_P2
2022/05/25 00:01:42;;;;;;;6.70;4.07;;;;;;;;;;4918421;29;20190;-84
2022/05/25 00:04:09;;;;;;;8.73;4.60;;;;;;;;;;4918640;29;20106;-85
2022/05/25 00:06:35;;;;;;;6.40;4.25;;;;;;;;;;4935405;29;20542;-84
2022/05/25 00:09:01;;;;;;;6.78;4.03;;;;;;;;;;4918548;29;20044;-84
2022/05/25 00:11:27;;;;;;;7.95;4.35;;;;;;;;;;4935415;29;20039;-85
2022/05/25 00:13:53;;;;;;;7.85;5.00;;;;;;;;;;4918517;29;20044;-84
2022/05/25 00:16:19;;;;;;;7.72;4.57;;;;;;;;;;4935165;29;20122;-84
2022/05/25 00:21:30;;;;;;;9.82;5.10;;;;;;;;;;4935225;29;20427;-84
2022/05/25 00:23:56;;;;;;;10.98;5.03;;;;;;;;;;4918431;29;20051;-84
2022/05/25 00:26:22;;;;;;;9.13;5.00;;;;;;;;;;4902428;29;20079;-85
2022/05/25 00:28:48;;;;;;;10.50;5.32;;;;;;;;;;4918563;29;20119;-84
2022/05/25 00:31:15;;;;;;;8.63;5.25;;;;;;;;;;4918462;29;20131;-85
2022/05/25 00:33:41;;;;;;;9.07;5.38;;;;;;;;;;4918586;29;20039;-85
2022/05/25 00:36:07;;;;;;;7.55;4.90;;;;;;;;;;4902499;29;20103;-84
2022/05/25 00:38:32;;;;;;;8.10;4.93;;;;;;;;;;4918105;29;20044;-84
2022/05/25 00:40:58;;;;;;;7.53;5.28;;;;;;;;;;4935395;29;20395;-84
2022/05/25 00:43:24;;;;;;;8.77;5.20;;;;;;;;;;4902400;29;20043;-84
2022/05/25 00:45:53;;;;;;;8.32;5.10;;;;;;;;;;4914811;29;20049;-84
2022/05/25 00:48:22;;;;;;;9.27;5.00;;;;;;;;;;4914735;29;20048;-84
2022/05/25 00:53:33;;;;;;;7.57;4.75;;;;;;;;;;4919406;29;20075;-85
2022/05/25 00:56:00;;;;;;;7.65;5.70;;;;;;;;;;4918831;29;20039;-84
2022/05/25 00:58:26;;;;;;;9.43;5.40;;;;;;;;;;4918259;29;20500;-85
2022/05/25 01:00:52;;;;;;;7.93;5.85;;;;;;;;;;4918352;29;20123;-84
2022/05/25 01:03:19;;;;;;;7.05;5.15;;;;;;;;;;4919668;29;20115;-84
2022/05/25 01:05:54;;;;;;;8.20;5.45;;;;;;;;;;4902765;29;20497;-84
2022/05/25 01:08:20;;;;;;;7.82;5.80;;;;;;;;;;4918408;29;20404;-84
2022/05/25 01:10:49;;;;;;;8.35;5.53;;;;;;;;;;4918297;29;20059;-85
2022/05/25 01:13:15;;;;;;;8.57;5.43;;;;;;;;;;4918010;29;20123;-84
2022/05/25 01:15:49;;;;;;;7.60;5.35;;;;;;;;;;4918113;29;20131;-84
2022/05/25 01:18:18;;;;;;;10.77;6.45;;;;;;;;;;4918259;29;20199;-84
2022/05/25 01:21:01;;;;;;;9.68;6.18;;;;;;;;;;4918020;29;20052;-84
2022/05/25 01:23:26;;;;;;;9.48;6.30;;;;;;;;;;4917876;29;20052;-85
2022/05/25 01:26:16;;;;;;;9.00;6.50;;;;;;;;;;4917926;29;20048;-84
2022/05/25 01:29:04;;;;;;;9.80;6.97;;;;;;;;;;4912690;29;20106;-85
2022/05/25 01:31:43;;;;;;;12.32;7.65;;;;;;;;;;4918131;29;20044;-85
2022/05/25 01:34:12;;;;;;;8.50;6.75;;;;;;;;;;4917661;29;20044;-85
2022/05/25 01:36:44;;;;;;;10.43;7.13;;;;;;;;;;4917824;29;20052;-84
2022/05/25 01:39:13;;;;;;;10.45;7.65;;;;;;;;;;4917747;29;20558;-85
2022/05/25 01:41:58;;;;;;;10.57;7.35;;;;;;;;;;4918025;29;20365;-84
2022/05/25 01:44:30;;;;;;;9.27;7.35;;;;;;;;;;4917883;29;20058;-84
2022/05/25 01:46:58;;;;;;;9.80;7.55;;;;;;;;;;4917482;29;20137;-85
2022/05/25 01:49:28;;;;;;;10.65;7.22;;;;;;;;;;4918980;29;20048;-84
2022/05/25 01:52:01;;;;;;;14.45;8.30;;;;;;;;;;4917623;29;20043;-85
2022/05/25 01:54:29;;;;;;;11.30;8.57;;;;;;;;;;4917612;29;20043;-85
2022/05/25 01:56:57;;;;;;;11.75;8.93;;;;;;;;;;4917447;29;20044;-85
2022/05/25 01:59:23;;;;;;;10.90;8.23;;;;;;;;;;4901581;29;20055;-85
2022/05/25 02:04:19;;;;;;;12.98;9.65;;;;;;;;;;4917605;29;20080;-85
2022/05/25 02:04:40;;;;;;;10.05;7.70;;;;;;;;;;4916843;29;20056;-84
2022/05/25 02:07:15;;;;;;;12.80;8.43;;;;;;;;;;4917372;29;20036;-85
2022/05/25 02:09:50;;;;;;;11.18;8.90;;;;;;;;;;4917293;29;20047;-85
2022/05/25 02:12:16;;;;;;;;;;;;;;;;;;4901952;29;20412;-85
2022/05/25 02:14:52;;;;;;;13.15;8.90;;;;;;;;;;4917091;29;19923;-84
2022/05/25 02:17:32;;;;;;;13.15;8.57;;;;;;;;;;4917407;29;20048;-86
2022/05/25 02:20:07;;;;;;;12.77;8.85;;;;;;;;;;4917190;29;20048;-85
2022/05/25 02:23:05;;;;;;;13.32;9.45;;;;;;;;;;4901211;29;20051;-84
2022/05/25 02:25:35;;;;;;;13.90;10.05;;;;;;;;;;4906890;29;20091;-85
2022/05/25 02:28:04;;;;;;;12.95;9.45;;;;;;;;;;4916716;29;20194;-84
2022/05/25 02:30:31;;;;;;;14.40;10.13;;;;;;;;;;4916917;29;20067;-84
2022/05/25 02:33:00;;;;;;;11.95;9.55;;;;;;;;;;4916935;29;20093;-85
2022/05/25 02:35:27;;;;;;;16.35;9.98;;;;;;;;;;4916754;29;20177;-85
2022/05/25 02:37:54;;;;;;;13.27;9.52;;;;;;;;;;4916511;29;20127;-85
2022/05/25 02:40:21;;;;;;;13.05;10.35;;;;;;;;;;4916832;29;20489;-85
2022/05/25 02:42:47;;;;;;;13.30;9.88;;;;;;;;;;4916403;29;20373;-84
2022/05/25 02:45:13;;;;;;;17.55;10.00;;;;;;;;;;4916352;29;20067;-85
2022/05/25 02:47:39;;;;;;;13.43;9.50;;;;;;;;;;4917842;29;20058;-84
2022/05/25 02:50:06;;;;;;;13.52;9.52;;;;;;;;;;4916561;29;20393;-84
2022/05/25 02:52:32;;;;;;;12.13;9.35;;;;;;;;;;4916699;29;20055;-85
2022/05/25 02:54:58;;;;;;;11.70;8.82;;;;;;;;;;4916446;29;20048;-85
2022/05/25 02:57:24;;;;;;;14.77;10.35;;;;;;;;;;4916254;29;20048;-85
2022/05/25 02:59:50;;;;;;;12.77;9.20;;;;;;;;;;4916217;29;20403;-84
2022/05/25 03:02:16;;;;;;;14.57;10.60;;;;;;;;;;4916398;29;20123;-84
2022/05/25 03:04:42;;;;;;;14.80;10.05;;;;;;;;;;4915935;29;20396;-85
2022/05/25 03:07:08;;;;;;;15.80;10.15;;;;;;;;;;4917427;29;20036;-84
2022/05/25 03:09:34;;;;;;;12.15;9.88;;;;;;;;;;4916181;29;20048;-85
2022/05/25 03:12:02;;;;;;;13.60;9.82;;;;;;;;;;4916166;29;20412;-84
2022/05/25 03:14:29;;;;;;;12.85;9.68;;;;;;;;;;4899960;29;20048;-84
2022/05/25 03:16:55;;;;;;;17.45;11.20;;;;;;;;;;4915115;29;20044;-84
2022/05/25 03:19:21;;;;;;;14.32;10.15;;;;;;;;;;4915767;29;20380;-84
2022/05/25 03:21:47;;;;;;;15.68;10.55;;;;;;;;;;4917229;29;20040;-84
2022/05/25 03:24:14;;;;;;;12.60;10.27;;;;;;;;;;4900232;29;20122;-84
2022/05/25 03:26:40;;;;;;;15.95;10.98;;;;;;;;;;4917166;29;20056;-85
2022/05/25 03:29:07;;;;;;;14.90;10.05;;;;;;;;;;4915803;29;20040;-85
2022/05/25 03:31:33;;;;;;;15.30;10.15;;;;;;;;;;4916916;29;20487;-84
2022/05/25 03:33:58;;;;;;;14.35;9.95;;;;;;;;;;4915481;29;20046;-84
2022/05/25 03:36:24;;;;;;;13.93;10.55;;;;;;;;;;4915728;29;20044;-85
2022/05/25 03:38:50;;;;;;;14.00;10.13;;;;;;;;;;4899821;29;20064;-85
2022/05/25 03:41:17;;;;;;;18.67;10.82;;;;;;;;;;4915454;29;20392;-85
2022/05/25 03:43:44;;;;;;;16.40;11.48;;;;;;;;;;4915418;29;20082;-85
2022/05/25 03:46:10;;;;;;;14.98;10.75;;;;;;;;;;4915320;29;20500;-85
2022/05/25 03:48:36;;;;;;;15.48;10.52;;;;;;;;;;4915559;29;20400;-84
2022/05/25 03:51:02;;;;;;;14.77;10.90;;;;;;;;;;4900200;29;20052;-84
2022/05/25 03:53:28;;;;;;;15.07;10.57;;;;;;;;;;4915259;29;20522;-84
2022/05/25 03:55:54;;;;;;;15.68;10.63;;;;;;;;;;4915316;29;20044;-84
2022/05/25 03:58:20;;;;;;;14.18;10.48;;;;;;;;;;4915103;29;20083;-85
2022/05/25 04:00:46;;;;;;;14.07;10.13;;;;;;;;;;4915377;29;20044;-84
2022/05/25 04:03:13;;;;;;;12.52;9.40;;;;;;;;;;4915416;29;20054;-85
2022/05/25 04:05:39;;;;;;;16.60;9.88;;;;;;;;;;4915122;29;20059;-85
2022/05/25 04:08:05;;;;;;;12.52;10.02;;;;;;;;;;4915328;29;20380;-84
2022/05/25 04:10:31;;;;;;;12.63;8.80;;;;;;;;;;4915062;29;20095;-84
2022/05/25 04:12:58;;;;;;;12.85;9.20;;;;;;;;;;4915290;29;20048;-85
2022/05/25 04:15:25;;;;;;;11.20;9.30;;;;;;;;;;4914878;29;20062;-84
2022/05/25 04:17:51;;;;;;;14.07;8.73;;;;;;;;;;4915598;29;20047;-84
2022/05/25 04:20:18;;;;;;;11.15;8.45;;;;;;;;;;4915068;29;20044;-85
2022/05/25 04:22:44;;;;;;;11.88;8.57;;;;;;;;;;4915400;29;20044;-85
2022/05/25 04:25:11;;;;;;;12.07;8.18;;;;;;;;;;4914874;29;20099;-85
2022/05/25 04:27:39;;;;;;;11.07;7.93;;;;;;;;;;4917482;29;20123;-84
2022/05/25 04:30:06;;;;;;;10.52;7.82;;;;;;;;;;4918722;29;20047;-85
2022/05/25 04:32:32;;;;;;;11.05;7.75;;;;;;;;;;4919068;29;20336;-85
2022/05/25 04:34:59;;;;;;;11.52;8.57;;;;;;;;;;4902921;29;20052;-84
2022/05/25 04:40:11;;;;;;;10.90;7.50;;;;;;;;;;4918563;29;20056;-85
2022/05/25 04:42:37;;;;;;;12.38;7.95;;;;;;;;;;4918974;29;20127;-85
2022/05/25 04:45:03;;;;;;;11.15;8.13;;;;;;;;;;4921575;29;20131;-84
2022/05/25 04:47:31;;;;;;;10.10;6.82;;;;;;;;;;4921845;29;20035;-85
2022/05/25 04:49:58;;;;;;;10.52;7.70;;;;;;;;;;4922262;29;20071;-84
2022/05/25 04:52:24;;;;;;;10.35;7.90;;;;;;;;;;4938833;29;20399;-85
2022/05/25 04:54:50;;;;;;;10.75;7.40;;;;;;;;;;4905559;29;20043;-85
2022/05/25 04:57:20;;;;;;;11.02;7.32;;;;;;;;;;4921728;29;20051;-86
2022/05/25 04:59:58;;;;;;;11.35;7.22;;;;;;;;;;4921480;29;20130;-86
2022/05/25 05:02:24;;;;;;;9.10;7.22;;;;;;;;;;4921807;29;20119;-86
2022/05/25 05:04:50;;;;;;;9.57;6.97;;;;;;;;;;4905876;29;20460;-85
2022/05/25 05:07:17;;;;;;;9.45;7.15;;;;;;;;;;4921581;29;20067;-85
2022/05/25 05:09:43;;;;;;;9.40;7.13;;;;;;;;;;4938320;29;20143;-85
2022/05/25 05:12:10;;;;;;;8.52;6.85;;;;;;;;;;4921679;29;20415;-85
2022/05/25 05:14:39;;;;;;;8.93;6.93;;;;;;;;;;4921351;29;20122;-85
2022/05/25 05:17:07;;;;;;;10.40;7.50;;;;;;;;;;4921343;29;20135;-85
2022/05/25 05:19:33;;;;;;;11.57;7.47;;;;;;;;;;4920959;29;20082;-84
2022/05/25 05:21:59;;;;;;;9.93;7.50;;;;;;;;;;4921444;29;20387;-85
2022/05/25 05:24:26;;;;;;;10.18;7.22;;;;;;;;;;4921053;29;20179;-84
2022/05/25 05:26:53;;;;;;;11.90;8.68;;;;;;;;;;4938334;29;20050;-85
2022/05/25 05:29:19;;;;;;;8.85;7.28;;;;;;;;;;4920929;29;20051;-84
2022/05/25 05:31:45;;;;;;;11.55;8.50;;;;;;;;;;4920989;29;20044;-85
2022/05/25 05:34:12;;;;;;;11.95;8.57;;;;;;;;;;4921392;29;20058;-85
2022/05/25 05:36:43;;;;;;;13.15;7.80;;;;;;;;;;4905286;29;20384;-85
2022/05/25 05:39:11;;;;;;;10.55;8.07;;;;;;;;;;4920028;29;20436;-84
2022/05/25 05:41:40;;;;;;;13.32;8.95;;;;;;;;;;4920714;29;20401;-84
2022/05/25 05:44:08;;;;;;;10.25;7.80;;;;;;;;;;4921077;29;20436;-84
2022/05/25 05:46:36;;;;;;;11.13;8.05;;;;;;;;;;4920414;29;20135;-84
2022/05/25 05:49:04;;;;;;;12.35;8.52;;;;;;;;;;4905055;29;20079;-84
2022/05/25 05:51:30;;;;;;;12.02;8.23;;;;;;;;;;4904892;29;20051;-84
2022/05/25 05:53:56;;;;;;;11.50;8.98;;;;;;;;;;4920971;29;20403;-84
2022/05/25 05:56:22;;;;;;;11.13;8.52;;;;;;;;;;4920417;29;20039;-84
2022/05/25 05:58:48;;;;;;;11.70;8.95;;;;;;;;;;4920818;29;20039;-84
2022/05/25 06:01:14;;;;;;;13.55;9.00;;;;;;;;;;4920331;29;20082;-84
2022/05/25 06:03:40;;;;;;;12.80;9.60;;;;;;;;;;4905114;29;20051;-84
2022/05/25 06:06:06;;;;;;;11.25;9.13;;;;;;;;;;4920415;29;20043;-84
2022/05/25 06:08:32;;;;;;;13.32;9.55;;;;;;;;;;4920453;29;20051;-84
2022/05/25 06:10:59;;;;;;;15.65;9.38;;;;;;;;;;4920544;29;20388;-83
2022/05/25 06:13:25;;;;;;;12.02;9.52;;;;;;;;;;4937334;29;20044;-83
2022/05/25 06:21:23;;;;;;;12.88;8.82;;;;;;;;;;4937137;29;20407;-83
2022/05/25 06:23:49;;;;;;;14.88;9.30;;;;;;;;;;4920236;29;20043;-84
2022/05/25 06:26:15;;;;;;;13.35;9.45;;;;;;;;;;4920076;29;20047;-83
2022/05/25 06:28:42;;;;;;;15.20;9.98;;;;;;;;;;4920122;29;20079;-84
2022/05/25 06:31:08;;;;;;;14.30;9.55;;;;;;;;;;4919936;29;20099;-83
2022/05/25 06:33:34;;;;;;;13.43;9.43;;;;;;;;;;4919856;29;20511;-84
2022/05/25 06:36:14;;;;;;;16.40;9.05;;;;;;;;;;4919584;29;20499;-84
2022/05/25 06:38:40;;;;;;;13.93;9.00;;;;;;;;;;4919946;29;20050;-84
2022/05/25 06:41:06;;;;;;;12.48;9.10;;;;;;;;;;4944339;29;20047;-83
2022/05/25 06:43:32;;;;;;;14.77;8.35;;;;;;;;;;4954298;29;20122;-83
2022/05/25 06:45:58;;;;;;;15.68;9.30;;;;;;;;;;4954122;28;20051;-83
2022/05/25 06:48:24;;;;;;;13.38;8.52;;;;;;;;;;4954330;29;20050;-83
2022/05/25 06:50:50;;;;;;;13.25;8.20;;;;;;;;;;4953671;28;20134;-83
2022/05/25 06:53:16;;;;;;;12.60;8.60;;;;;;;;;;4955735;28;20073;-83
2022/05/25 06:55:42;;;;;;;15.02;8.35;;;;;;;;;;4953777;28;20126;-82
2022/05/25 06:58:08;;;;;;;10.27;7.18;;;;;;;;;;4954153;29;20074;-83
2022/05/25 07:00:34;;;;;;;12.25;7.65;;;;;;;;;;4953893;28;20049;-84
2022/05/25 07:03:04;;;;;;;11.50;7.93;;;;;;;;;;4954170;29;20042;-83
2022/05/25 07:05:30;;;;;;;14.70;7.03;;;;;;;;;;4953817;28;20051;-82
2022/05/25 07:07:56;;;;;;;12.27;6.15;;;;;;;;;;4953905;28;20106;-83
2022/05/25 07:10:22;;;;;;;13.18;7.03;;;;;;;;;;4953566;29;20039;-82
2022/05/25 07:12:48;;;;;;;9.52;6.20;;;;;;;;;;4954113;29;20074;-83
2022/05/25 07:15:14;;;;;;;9.90;6.35;;;;;;;;;;4937667;29;20082;-81
2022/05/25 07:17:40;;;;;;;10.88;6.32;;;;;;;;;;4955012;29;20051;-82
2022/05/25 07:20:09;;;;;;;12.48;6.65;;;;;;;;;;4953461;29;20054;-84
2022/05/25 07:22:35;;;;;;;12.02;6.85;;;;;;;;;;4953688;29;20039;-83
2022/05/25 07:25:01;;;;;;;11.25;6.65;;;;;;;;;;4954588;28;20482;-83
2022/05/25 07:27:27;;;;;;;9.18;5.95;;;;;;;;;;4953147;29;20058;-83
2022/05/25 07:29:53;;;;;;;13.20;6.13;;;;;;;;;;4953746;29;20055;-83
2022/05/25 07:32:19;;;;;;;13.40;7.18;;;;;;;;;;4953230;29;20053;-83
2022/05/25 07:34:49;;;;;;;10.07;5.72;;;;;;;;;;4953429;28;20422;-83
2022/05/25 07:37:16;;;;;;;10.68;6.38;;;;;;;;;;4953337;28;20089;-83
2022/05/25 07:39:53;;;;;;;12.25;6.35;;;;;;;;;;4954831;28;20062;-83
2022/05/25 07:42:21;;;;;;;11.00;6.25;;;;;;;;;;4954615;29;20115;-83
2022/05/25 07:44:49;;;;;;;8.45;4.85;;;;;;;;;;4937086;28;20504;-83
2022/05/25 07:47:15;;;;;;;11.27;5.07;;;;;;;;;;4954211;29;20423;-83
2022/05/25 07:49:41;;;;;;;8.45;4.95;;;;;;;;;;4953470;29;20494;-83
2022/05/25 07:52:07;;;;;;;9.55;6.28;;;;;;;;;;4953041;29;20094;-83
2022/05/25 07:54:34;;;;;;;9.82;6.00;;;;;;;;;;4953427;28;20435;-83
2022/05/25 07:57:00;;;;;;;12.13;6.03;;;;;;;;;;4952867;29;20043;-82
2022/05/25 07:59:26;;;;;;;9.18;6.00;;;;;;;;;;4954755;28;20130;-82
2022/05/25 08:07:26;;;;;;;7.95;4.85;;;;;;;;;;4954772;28;20047;-82
2022/05/25 08:09:54;;;;;;;9.50;5.50;;;;;;;;;;4953446;28;20051;-84
2022/05/25 08:12:21;;;;;;;8.75;4.93;;;;;;;;;;4954756;28;20050;-82
2022/05/25 08:14:47;;;;;;;9.70;4.53;;;;;;;;;;4937293;28;20081;-82
2022/05/25 08:17:13;;;;;;;13.30;5.90;;;;;;;;;;4953345;29;20051;-82
2022/05/25 08:19:39;;;;;;;10.30;5.20;;;;;;;;;;4953298;29;20130;-82
2022/05/25 08:22:06;;;;;;;8.45;4.30;;;;;;;;;;4953259;29;20454;-84
2022/05/25 08:24:32;;;;;;;6.70;3.25;;;;;;;;;;4953358;29;20039;-84
2022/05/25 08:26:58;;;;;;;7.30;3.60;;;;;;;;;;4953342;28;20067;-83
2022/05/25 08:29:25;;;;;;;8.02;3.63;;;;;;;;;;4953285;28;20047;-83
2022/05/25 08:31:55;;;;;;;8.75;4.15;;;;;;;;;;4954320;28;20047;-82
2022/05/25 08:34:21;;;;;;;7.45;4.30;;;;;;;;;;4954551;28;20467;-83
2022/05/25 08:36:47;;;;;;;8.65;4.30;;;;;;;;;;4953108;28;20122;-82
2022/05/25 08:39:14;;;;;;;7.60;3.97;;;;;;;;;;4953171;29;20082;-89
2022/05/25 08:41:41;;;;;;;8.23;3.83;;;;;;;;;;4953020;29;20410;-83
2022/05/25 08:44:09;;;;;;;6.65;3.90;;;;;;;;;;4953255;29;20052;-83
2022/05/25 08:46:35;;;;;;;8.40;3.78;;;;;;;;;;4953493;28;20055;-83
2022/05/25 08:49:03;;;;;;;7.85;3.10;;;;;;;;;;4954446;29;20116;-82
2022/05/25 08:51:30;;;;;;;5.28;3.05;;;;;;;;;;4953355;29;20066;-83
2022/05/25 08:53:57;;;;;;;9.05;2.85;;;;;;;;;;4953441;28;20055;-83
2022/05/25 08:56:23;;;;;;;6.50;2.90;;;;;;;;;;4935816;29;20043;-82
2022/05/25 08:58:49;;;;;;;6.07;3.30;;;;;;;;;;4953065;29;20411;-83
2022/05/25 09:01:25;;;;;;;6.15;2.50;;;;;;;;;;4955182;28;20118;-83
2022/05/25 09:04:08;;;;;;;9.85;2.70;;;;;;;;;;4940188;28;20042;-84
2022/05/25 09:06:53;;;;;;;4.82;2.40;;;;;;;;;;4955828;28;20093;-83
2022/05/25 09:09:19;;;;;;;6.67;2.70;;;;;;;;;;4956201;28;20046;-83
2022/05/25 09:11:50;;;;;;;8.93;3.65;;;;;;;;;;4955016;28;20042;-83
2022/05/25 09:14:24;;;;;;;5.82;3.00;;;;;;;;;;4959179;28;20081;-84
2022/05/25 09:16:52;;;;;;;7.38;2.88;;;;;;;;;;4959282;28;20501;-84
2022/05/25 09:19:24;;;;;;;6.03;3.03;;;;;;;;;;4976790;28;20031;-83
2022/05/25 09:21:53;;;;;;;6.47;2.80;;;;;;;;;;4959540;28;20596;-83
2022/05/25 09:24:21;;;;;;;6.63;3.00;;;;;;;;;;4959694;28;20054;-83
2022/05/25 09:26:47;;;;;;;6.85;2.95;;;;;;;;;;4976378;28;20035;-81
2022/05/25 09:29:14;;;;;;;7.22;3.42;;;;;;;;;;4976640;28;20051;-82
2022/05/25 09:31:52;;;;;;;5.95;2.80;;;;;;;;;;4940929;29;20131;-82
2022/05/25 09:34:23;;;;;;;5.22;2.50;;;;;;;;;;4938112;29;20372;-82
2022/05/25 09:36:52;;;;;;;5.50;2.70;;;;;;;;;;4920789;29;20060;-82
2022/05/25 09:39:18;;;;;;;5.10;2.45;;;;;;;;;;4920969;29;20099;-83
2022/05/25 09:41:46;;;;;;;8.02;2.95;;;;;;;;;;4938182;29;20051;-84
2022/05/25 09:44:15;;;;;;;5.57;2.60;;;;;;;;;;4937981;29;20044;-83
2022/05/25 09:46:47;;;;;;;5.18;2.92;;;;;;;;;;4920702;29;20088;-81
2022/05/25 09:49:26;;;;;;;5.45;2.80;;;;;;;;;;4920982;29;20114;-82
2022/05/25 09:51:54;;;;;;;6.03;2.33;;;;;;;;;;4920735;28;20039;-83
2022/05/25 09:54:26;;;;;;;5.72;2.60;;;;;;;;;;4974851;28;20856;-82
2022/05/25 09:57:11;;;;;;;4.65;1.88;;;;;;;;;;4958882;28;20101;-83
2022/05/25 09:59:39;;;;;;;4.88;2.17;;;;;;;;;;4958671;28;20081;-82
2022/05/25 10:02:24;;;;;;;4.82;2.17;;;;;;;;;;4975884;28;20135;-83
2022/05/25 10:04:51;;;;;;;6.38;2.58;;;;;;;;;;4958661;28;20047;-82
2022/05/25 10:07:37;;;;;;;4.50;1.95;;;;;;;;;;4958523;28;20398;-82
2022/05/25 10:10:06;;;;;;;9.23;3.00;;;;;;;;;;4958372;28;20042;-81
2022/05/25 10:12:33;;;;;;;5.30;2.53;;;;;;;;;;4942695;28;20109;-82
2022/05/25 10:15:01;;;;;;;6.88;2.75;;;;;;;;;;4953058;28;20126;-88
2022/05/25 10:17:39;;;;;;;5.90;2.55;;;;;;;;;;4958560;28;20054;-82
2022/05/25 10:20:23;;;;;;;5.25;2.20;;;;;;;;;;4942720;28;20050;-82
2022/05/25 10:22:51;;;;;;;5.15;2.00;;;;;;;;;;4958208;28;20042;-82
2022/05/25 10:25:27;;;;;;;4.68;2.03;;;;;;;;;;4958140;28;20038;-81
2022/05/25 10:27:53;;;;;;;6.28;2.88;;;;;;;;;;4958341;28;20045;-81
2022/05/25 10:36:47;;;;;;;5.25;2.60;;;;;;;;;;4975610;28;20126;-81
2022/05/25 10:39:23;;;;;;;5.53;2.45;;;;;;;;;;4958122;28;20406;-81
2022/05/25 10:42:00;;;;;;;5.53;2.40;;;;;;;;;;4942011;28;20047;-81
2022/05/25 10:44:27;;;;;;;12.48;2.92;;;;;;;;;;4956931;28;20053;-81
2022/05/25 10:46:57;;;;;;;27.00;5.45;;;;;;;;;;4957837;28;20058;-83
2022/05/25 10:49:42;;;;;;;7.63;2.80;;;;;;;;;;4957135;28;20043;-82
2022/05/25 10:52:11;;;;;;;5.47;2.60;;;;;;;;;;4975384;28;20482;-83
2022/05/25 10:54:45;;;;;;;6.68;2.80;;;;;;;;;;4944890;28;20039;-83
2022/05/25 10:57:23;;;;;;;5.90;2.53;;;;;;;;;;4938885;29;20042;-83
2022/05/25 11:00:08;;;;;;;5.25;2.60;;;;;;;;;;4935243;29;20430;-82
2022/05/25 11:02:45;;;;;;;4.45;2.17;;;;;;;;;;4922919;29;20050;-83
2022/05/25 11:05:30;;;;;;;5.15;1.90;;;;;;;;;;4955691;28;20081;-83
2022/05/25 11:08:02;;;;;;;6.07;2.50;;;;;;;;;;4938505;29;20047;-82
2022/05/25 11:10:37;;;;;;;5.43;3.00;;;;;;;;;;4938708;29;20490;-82
2022/05/25 11:13:24;;;;;;;5.35;2.60;;;;;;;;;;4938435;29;20047;-83
2022/05/25 11:15:59;;;;;;;4.70;2.60;;;;;;;;;;4955466;28;20090;-82
2022/05/25 11:18:46;;;;;;;6.00;2.70;;;;;;;;;;4938396;29;20486;-84
2022/05/25 11:21:33;;;;;;;8.02;2.80;;;;;;;;;;4922279;29;20074;-83
2022/05/25 11:24:18;;;;;;;6.07;2.20;;;;;;;;;;4937220;29;20109;-83
2022/05/25 11:26:44;;;;;;;5.78;2.05;;;;;;;;;;4938083;29;20050;-85
2022/05/25 11:29:19;;;;;;;5.90;2.55;;;;;;;;;;4938128;29;20054;-83
2022/05/25 11:31:48;;;;;;;9.10;2.90;;;;;;;;;;4955304;29;20042;-83
2022/05/25 11:34:22;;;;;;;5.32;2.50;;;;;;;;;;4937774;29;20077;-83
2022/05/25 11:37:01;;;;;;;7.20;2.70;;;;;;;;;;4921587;29;20050;-84
2022/05/25 11:39:50;;;;;;;7.97;2.90;;;;;;;;;;4937718;29;20050;-84
2022/05/25 11:42:34;;;;;;;6.72;2.67;;;;;;;;;;4955010;28;20498;-81
2022/05/25 11:45:08;;;;;;;6.68;2.97;;;;;;;;;;4955179;28;20055;-83
2022/05/25 11:47:52;;;;;;;7.25;3.05;;;;;;;;;;4937893;29;20071;-83
2022/05/25 11:50:30;;;;;;;7.20;3.60;;;;;;;;;;4938016;29;20102;-83
2022/05/25 11:53:02;;;;;;;8.07;4.10;;;;;;;;;;4954929;29;20035;-83
2022/05/25 11:55:32;;;;;;;6.93;3.65;;;;;;;;;;4938057;29;20098;-85
2022/05/25 11:58:18;;;;;;;8.15;4.65;;;;;;;;;;4937705;29;20494;-83
2022/05/25 12:00:59;;;;;;;8.65;5.07;;;;;;;;;;4937585;29;20510;-84
2022/05/25 12:03:25;;;;;;;10.48;4.90;;;;;;;;;;4937572;29;20253;-84
2022/05/25 12:06:00;;;;;;;9.25;4.38;;;;;;;;;;4954809;28;20290;-79
2022/05/25 12:08:26;;;;;;;;;;;;;;;;;;4953929;29;20130;-84
2022/05/25 12:10:52;;;;;;;;;;;;;;;;;;4938613;29;19974;-83
2022/05/25 12:13:21;;;;;;;;;;;;;;;;;;4955112;29;19918;-82
2022/05/25 12:15:53;;;;;;;7.28;4.72;;;;;;;;;;4954554;28;19926;-83
2022/05/25 12:18:23;;;;;;;6.65;4.47;;;;;;;;;;4937401;29;20039;-83
2022/05/25 12:21:00;;;;;;;5.35;3.40;;;;;;;;;;4937397;29;20047;-82
2022/05/25 12:23:41;;;;;;;10.98;4.18;;;;;;;;;;4937562;29;20367;-83
2022/05/25 12:26:12;;;;;;;7.60;4.18;;;;;;;;;;4937392;29;20119;-83
2022/05/25 12:28:39;;;;;;;5.68;3.60;;;;;;;;;;4921536;29;20100;-83
2022/05/25 12:31:08;;;;;;;7.40;3.60;;;;;;;;;;4937659;29;20043;-82
2022/05/25 12:33:35;;;;;;;6.18;3.83;;;;;;;;;;4937313;29;20051;-83
2022/05/25 12:36:07;;;;;;;6.40;3.67;;;;;;;;;;4937268;29;20130;-83
2022/05/25 12:38:34;;;;;;;6.75;3.53;;;;;;;;;;4937353;29;20062;-82
2022/05/25 12:41:20;;;;;;;7.22;3.88;;;;;;;;;;4937353;29;20417;-83
2022/05/25 12:43:46;;;;;;;;;;;;;;;;;;4954941;29;20053;-83
2022/05/25 12:49:13;;;;;;;9.75;4.32;;;;;;;;;;4882358;29;19973;-82
2022/05/25 12:51:40;;;;;;;7.15;2.83;;;;;;;;;;4929468;29;20083;-82
2022/05/25 12:54:19;;;;;;;7.25;3.35;;;;;;;;;;4940676;29;20050;-82
2022/05/25 12:56:45;;;;;;;6.82;3.03;;;;;;;;;;4940987;29;20054;-82
2022/05/25 12:59:12;;;;;;;6.57;2.50;;;;;;;;;;4940848;29;20086;-82
2022/05/25 13:01:40;;;;;;;6.95;2.92;;;;;;;;;;4958044;29;20098;-82
2022/05/25 13:04:09;;;;;;;6.90;2.55;;;;;;;;;;4940557;29;20054;-82
2022/05/25 13:06:36;;;;;;;5.68;3.38;;;;;;;;;;4940870;29;20050;-82
2022/05/25 13:09:28;;;;;;;6.97;3.03;;;;;;;;;;4940659;29;20055;-83
2022/05/25 13:11:55;;;;;;;7.53;3.20;;;;;;;;;;4955959;28;20047;-83
2022/05/25 13:14:22;;;;;;;13.20;2.58;;;;;;;;;;4940492;29;20055;-83
2022/05/25 13:16:48;;;;;;;5.93;2.10;;;;;;;;;;4940671;29;20057;-83
2022/05/25 13:19:14;;;;;;;5.72;1.40;;;;;;;;;;4940562;29;20110;-82
2022/05/25 13:21:41;;;;;;;6.75;1.70;;;;;;;;;;4940416;29;20047;-83
2022/05/25 13:24:14;;;;;;;6.57;1.65;;;;;;;;;;4940375;29;20042;-82
2022/05/25 13:26:51;;;;;;;4.63;1.30;;;;;;;;;;4957482;28;20545;-83
2022/05/25 13:29:41;;;;;;;4.70;1.27;;;;;;;;;;4940352;29;20039;-83
2022/05/25 13:32:13;;;;;;;4.15;1.10;;;;;;;;;;4952129;28;20228;-83
2022/05/25 13:34:40;;;;;;;4.43;1.20;;;;;;;;;;4940057;28;20045;-83
2022/05/25 13:37:09;;;;;;;3.78;1.08;;;;;;;;;;4940109;29;20101;-83
2022/05/25 13:39:35;;;;;;;6.93;0.98;;;;;;;;;;4957189;29;20083;-83
2022/05/25 13:42:10;;;;;;;7.78;0.90;;;;;;;;;;4957181;29;20127;-83
2022/05/25 13:44:57;;;;;;;5.43;1.13;;;;;;;;;;4940025;28;20078;-82
2022/05/25 13:47:24;;;;;;;5.57;1.02;;;;;;;;;;4939792;29;20051;-83
2022/05/25 13:49:52;;;;;;;5.32;0.75;;;;;;;;;;4940032;29;20054;-83
2022/05/25 13:52:26;;;;;;;3.40;1.15;;;;;;;;;;4940152;29;20122;-83
2022/05/25 13:54:53;;;;;;;2.63;0.70;;;;;;;;;;4923939;28;20086;-83
2022/05/25 13:57:22;;;;;;;4.95;0.93;;;;;;;;;;4939763;29;20312;-83
2022/05/25 13:59:48;;;;;;;4.53;0.93;;;;;;;;;;4922858;29;20269;-83
2022/05/25 14:02:31;;;;;;;6.18;0.90;;;;;;;;;;4957065;28;20195;-83
2022/05/25 14:05:04;;;;;;;6.43;1.10;;;;;;;;;;4939658;29;20043;-83
2022/05/25 14:07:39;;;;;;;5.25;1.10;;;;;;;;;;4939605;29;20039;-83
2022/05/25 14:12:53;;;;;;;5.47;1.17;;;;;;;;;;4956949;29;20063;-83
2022/05/25 14:15:20;;;;;;;5.13;1.13;;;;;;;;;;4923298;29;20525;-83
2022/05/25 14:17:56;;;;;;;4.22;0.90;;;;;;;;;;4939484;29;20043;-83
2022/05/25 14:20:22;;;;;;;4.45;0.90;;;;;;;;;;4956737;29;20039;-91
2022/05/25 14:22:49;;;;;;;4.97;0.77;;;;;;;;;;4923563;29;20509;-83
2022/05/25 14:25:21;;;;;;;4.50;1.00;;;;;;;;;;4923224;29;20089;-83
2022/05/25 14:27:48;;;;;;;7.78;0.82;;;;;;;;;;4939309;29;20043;-84
2022/05/25 14:30:22;;;;;;;5.47;0.82;;;;;;;;;;4938931;29;20405;-84
2022/05/25 14:33:01;;;;;;;4.70;1.00;;;;;;;;;;4956625;28;20054;-83
2022/05/25 14:35:27;;;;;;;4.85;0.98;;;;;;;;;;4939052;29;20074;-83
2022/05/25 14:37:55;;;;;;;5.35;0.60;;;;;;;;;;4939102;29;20098;-83
2022/05/25 14:40:26;;;;;;;5.30;1.00;;;;;;;;;;4938749;29;20055;-84
2022/05/25 14:43:03;;;;;;;4.38;0.85;;;;;;;;;;4936856;29;20126;-83
2022/05/25 14:45:30;;;;;;;5.40;0.73;;;;;;;;;;4955657;28;20110;-84
2022/05/25 14:48:02;;;;;;;4.32;0.80;;;;;;;;;;4939182;29;20059;-83
2022/05/25 14:50:31;;;;;;;6.47;0.80;;;;;;;;;;4938890;29;20390;-83
2022/05/25 14:52:57;;;;;;;7.75;1.02;;;;;;;;;;4938735;29;20054;-83
2022/05/25 14:55:25;;;;;;;5.95;0.80;;;;;;;;;;4955758;28;20043;-82
2022/05/25 14:58:12;;;;;;;5.25;1.23;;;;;;;;;;4938852;29;20102;-83
2022/05/25 15:00:45;;;;;;;7.40;0.80;;;;;;;;;;4938283;29;20055;-82
2022/05/25 15:03:11;;;;;;;7.40;1.13;;;;;;;;;;4938578;29;20127;-83
2022/05/25 15:05:37;;;;;;;4.97;0.75;;;;;;;;;;4938278;29;20040;-82
2022/05/25 15:08:04;;;;;;;5.55;1.00;;;;;;;;;;4938556;29;20050;-83
2022/05/25 15:10:34;;;;;;;5.15;1.08;;;;;;;;;;4955598;28;20053;-83
2022/05/25 15:13:00;;;;;;;8.32;1.00;;;;;;;;;;4938287;29;20454;-83
2022/05/25 15:18:31;;;;;;;5.18;1.17;;;;;;;;;;4955568;29;20050;-82
2022/05/25 15:21:18;;;;;;;7.80;0.90;;;;;;;;;;4938068;29;20051;-84
2022/05/25 15:23:47;;;;;;;3.38;0.80;;;;;;;;;;4938559;29;20043;-83
2022/05/25 15:26:25;;;;;;;3.75;0.77;;;;;;;;;;4937246;29;20043;-83
2022/05/25 15:29:10;;;;;;;8.48;1.48;;;;;;;;;;4938083;29;20043;-82